GLO1746 SBBR-SBGO
Flight info
| Callsign | GLO1746 |
|---|---|
| Flight time | 0h 33m |
| Altitude | 18000 |
| Route | SIREM DCT GNV |
| Aircraft | B738/M-SDFGIKLORWXY/LB1 |
Departure
| Time | 2026-04-26 22:08 |
|---|---|
| Airport | Presidente Juscelino Kubitschek International Airport (SBBR) |
Arrival
| Time | 2026-04-26 22:42 |
|---|---|
| Airport | Santa Genoveva International Airport (SBGO) |
| Time | Latitude | Longitude | Altitude | Speed | Heading |
|---|---|---|---|---|---|
| 2026-04-26 21:26 | -15.86710 | -47.91843 | 3463 ft | 0 kts | 176° |
| 2026-04-26 21:54 | -15.86693 | -47.91845 | 3463 ft | 5 kts | 176° |
| 2026-04-26 21:54 | -15.86670 | -47.91846 | 3464 ft | 5 kts | 175° |
| 2026-04-26 21:54 | -15.86639 | -47.91850 | 3463 ft | 4 kts | 167° |
| 2026-04-26 21:54 | -15.86624 | -47.91856 | 3463 ft | 2 kts | 135° |
| 2026-04-26 21:55 | -15.86619 | -47.91866 | 3463 ft | 2 kts | 95° |
| 2026-04-26 21:55 | -15.86619 | -47.91877 | 3463 ft | 2 kts | 85° |
| 2026-04-26 21:55 | -15.86619 | -47.91882 | 3463 ft | 0 kts | 84° |
| 2026-04-26 21:57 | -15.86618 | -47.91873 | 3463 ft | 3 kts | 84° |
| 2026-04-26 21:58 | -15.86615 | -47.91841 | 3463 ft | 6 kts | 86° |
| 2026-04-26 21:58 | -15.86610 | -47.91790 | 3463 ft | 8 kts | 83° |
| 2026-04-26 21:58 | -15.86618 | -47.91737 | 3462 ft | 4 kts | 116° |
| 2026-04-26 21:58 | -15.86643 | -47.91719 | 3464 ft | 5 kts | 156° |
| 2026-04-26 21:59 | -15.86673 | -47.91697 | 3464 ft | 6 kts | 122° |
| 2026-04-26 21:59 | -15.86685 | -47.91647 | 3463 ft | 8 kts | 111° |
| 2026-04-26 21:59 | -15.86724 | -47.91611 | 3464 ft | 8 kts | 160° |
| 2026-04-26 21:59 | -15.86780 | -47.91614 | 3464 ft | 9 kts | 186° |
| 2026-04-26 22:00 | -15.86856 | -47.91608 | 3464 ft | 12 kts | 174° |
| 2026-04-26 22:00 | -15.86949 | -47.91600 | 3463 ft | 15 kts | 176° |
| 2026-04-26 22:00 | -15.87054 | -47.91594 | 3464 ft | 15 kts | 178° |
| 2026-04-26 22:00 | -15.87156 | -47.91590 | 3463 ft | 14 kts | 176° |
| 2026-04-26 22:01 | -15.87254 | -47.91582 | 3463 ft | 14 kts | 175° |
| 2026-04-26 22:01 | -15.87347 | -47.91576 | 3463 ft | 13 kts | 178° |
| 2026-04-26 22:01 | -15.87439 | -47.91569 | 3463 ft | 14 kts | 178° |
| 2026-04-26 22:01 | -15.87548 | -47.91563 | 3462 ft | 17 kts | 175° |
| 2026-04-26 22:02 | -15.87666 | -47.91552 | 3461 ft | 17 kts | 177° |
| 2026-04-26 22:02 | -15.87724 | -47.91478 | 3458 ft | 14 kts | 88° |
| 2026-04-26 22:02 | -15.87720 | -47.91374 | 3455 ft | 14 kts | 86° |
| 2026-04-26 22:02 | -15.87711 | -47.91272 | 3453 ft | 14 kts | 85° |
| 2026-04-26 22:03 | -15.87704 | -47.91175 | 3456 ft | 13 kts | 86° |
| 2026-04-26 22:03 | -15.87698 | -47.91082 | 3452 ft | 13 kts | 86° |
| 2026-04-26 22:03 | -15.87695 | -47.90991 | 3451 ft | 12 kts | 101° |
| 2026-04-26 22:03 | -15.87737 | -47.90946 | 3450 ft | 5 kts | 174° |
| 2026-04-26 22:04 | -15.87751 | -47.90945 | 3450 ft | 0 kts | 176° |
| 2026-04-26 22:05 | -15.87753 | -47.90945 | 3450 ft | 2 kts | 176° |
| 2026-04-26 22:05 | -15.87786 | -47.90943 | 3451 ft | 8 kts | 175° |
| 2026-04-26 22:05 | -15.87854 | -47.90958 | 3452 ft | 11 kts | 223° |
| 2026-04-26 22:06 | -15.87875 | -47.91032 | 3450 ft | 11 kts | 266° |
| 2026-04-26 22:06 | -15.87878 | -47.91063 | 3449 ft | 0 kts | 266° |
| 2026-04-26 22:07 | -15.87880 | -47.91115 | 3449 ft | 32 kts | 269° |
| 2026-04-26 22:08 | -15.87911 | -47.91591 | 3459 ft | 99 kts | 266° |
| 2026-04-26 22:08 | -15.87971 | -47.92511 | 3479 ft | 155 kts | 266° |
| 2026-04-26 22:08 | -15.88072 | -47.93795 | 3609 ft | 193 kts | 264° |
| 2026-04-26 22:08 | -15.88183 | -47.95210 | 4315 ft | 200 kts | 260° |
| 2026-04-26 22:09 | -15.88675 | -47.96535 | 5120 ft | 197 kts | 225° |
| 2026-04-26 22:09 | -15.89847 | -47.97203 | 5837 ft | 201 kts | 186° |
| 2026-04-26 22:09 | -15.91293 | -47.97157 | 6248 ft | 217 kts | 175° |
| 2026-04-26 22:09 | -15.92901 | -47.97043 | 6391 ft | 245 kts | 177° |
| 2026-04-26 22:10 | -15.94697 | -47.96950 | 6610 ft | 272 kts | 177° |
| 2026-04-26 22:10 | -15.96621 | -47.96863 | 7257 ft | 281 kts | 178° |
| 2026-04-26 22:10 | -15.98591 | -47.96790 | 8016 ft | 285 kts | 178° |
| 2026-04-26 22:10 | -16.00592 | -47.96721 | 8772 ft | 290 kts | 178° |
| 2026-04-26 22:11 | -16.02629 | -47.96654 | 9493 ft | 295 kts | 178° |
| 2026-04-26 22:11 | -16.04671 | -47.96588 | 9959 ft | 293 kts | 178° |
| 2026-04-26 22:11 | -16.06724 | -47.96613 | 10088 ft | 300 kts | 191° |
| 2026-04-26 22:11 | -16.08639 | -47.97443 | 10212 ft | 303 kts | 215° |
| 2026-04-26 22:12 | -16.10270 | -47.98899 | 10398 ft | 324 kts | 224° |
| 2026-04-26 22:12 | -16.11894 | -48.00591 | 10876 ft | 335 kts | 225° |
| 2026-04-26 22:12 | -16.13530 | -48.02349 | 11568 ft | 339 kts | 226° |
| 2026-04-26 22:12 | -16.15145 | -48.04080 | 12318 ft | 340 kts | 225° |
| 2026-04-26 22:13 | -16.16806 | -48.05845 | 13019 ft | 343 kts | 225° |
| 2026-04-26 22:13 | -16.18497 | -48.07626 | 13654 ft | 348 kts | 225° |
| 2026-04-26 22:13 | -16.20217 | -48.09428 | 14293 ft | 352 kts | 225° |
| 2026-04-26 22:13 | -16.21957 | -48.11242 | 14918 ft | 357 kts | 225° |
| 2026-04-26 22:14 | -16.23721 | -48.13080 | 15526 ft | 361 kts | 225° |
| 2026-04-26 22:14 | -16.25505 | -48.14936 | 16120 ft | 365 kts | 225° |
| 2026-04-26 22:14 | -16.27306 | -48.16809 | 16731 ft | 367 kts | 225° |
| 2026-04-26 22:14 | -16.29115 | -48.18693 | 17088 ft | 368 kts | 225° |
| 2026-04-26 22:15 | -16.30918 | -48.20569 | 17087 ft | 364 kts | 225° |
| 2026-04-26 22:15 | -16.32708 | -48.22432 | 17099 ft | 364 kts | 225° |
| 2026-04-26 22:15 | -16.34480 | -48.24278 | 17108 ft | 365 kts | 225° |
| 2026-04-26 22:15 | -16.36278 | -48.26151 | 17111 ft | 366 kts | 225° |
| 2026-04-26 22:16 | -16.38063 | -48.28045 | 17112 ft | 368 kts | 229° |
| 2026-04-26 22:16 | -16.39436 | -48.30300 | 17492 ft | 372 kts | 244° |
| 2026-04-26 22:16 | -16.40546 | -48.32723 | 18047 ft | 370 kts | 245° |
| 2026-04-26 22:16 | -16.41625 | -48.35159 | 18080 ft | 369 kts | 245° |
| 2026-04-26 22:17 | -16.42695 | -48.37579 | 18092 ft | 365 kts | 245° |
| 2026-04-26 22:17 | -16.43764 | -48.39970 | 18094 ft | 363 kts | 245° |
| 2026-04-26 22:17 | -16.44839 | -48.42352 | 18107 ft | 364 kts | 245° |
| 2026-04-26 22:17 | -16.45924 | -48.44740 | 18111 ft | 365 kts | 245° |
| 2026-04-26 22:18 | -16.47015 | -48.47129 | 18109 ft | 366 kts | 245° |
| 2026-04-26 22:18 | -16.48109 | -48.49524 | 18107 ft | 366 kts | 245° |
| 2026-04-26 22:18 | -16.49205 | -48.51919 | 18104 ft | 366 kts | 245° |
| 2026-04-26 22:18 | -16.50300 | -48.54314 | 18101 ft | 366 kts | 245° |
| 2026-04-26 22:19 | -16.51134 | -48.56813 | 17617 ft | 369 kts | 259° |
| 2026-04-26 22:19 | -16.51391 | -48.59494 | 16907 ft | 375 kts | 270° |
| 2026-04-26 22:19 | -16.51227 | -48.62217 | 16254 ft | 378 kts | 275° |
| 2026-04-26 22:19 | -16.50994 | -48.64944 | 15767 ft | 376 kts | 275° |
| 2026-04-26 22:20 | -16.50759 | -48.67650 | 15232 ft | 375 kts | 275° |
| 2026-04-26 22:20 | -16.50604 | -48.69453 | 14726 ft | 379 kts | 275° |
| 2026-04-26 22:20 | -16.50299 | -48.73121 | 13996 ft | 378 kts | 275° |
| 2026-04-26 22:20 | -16.50079 | -48.75834 | 13527 ft | 374 kts | 275° |
| 2026-04-26 22:21 | -16.49863 | -48.78527 | 13037 ft | 372 kts | 275° |
| 2026-04-26 22:21 | -16.49651 | -48.81202 | 12496 ft | 370 kts | 274° |
| 2026-04-26 22:21 | -16.49441 | -48.83854 | 12270 ft | 360 kts | 274° |
| 2026-04-26 22:21 | -16.49242 | -48.86379 | 12048 ft | 351 kts | 274° |
| 2026-04-26 22:22 | -16.49043 | -48.88891 | 11728 ft | 345 kts | 274° |
| 2026-04-26 22:22 | -16.48846 | -48.91384 | 11320 ft | 343 kts | 274° |
| 2026-04-26 22:22 | -16.48651 | -48.93849 | 10918 ft | 341 kts | 274° |
| 2026-04-26 22:22 | -16.48458 | -48.96288 | 10682 ft | 333 kts | 274° |
| 2026-04-26 22:23 | -16.48269 | -48.98659 | 10530 ft | 323 kts | 274° |
| 2026-04-26 22:23 | -16.48087 | -49.00960 | 10386 ft | 314 kts | 274° |
| 2026-04-26 22:23 | -16.47908 | -49.03196 | 10246 ft | 305 kts | 274° |
| 2026-04-26 22:23 | -16.47735 | -49.05368 | 10112 ft | 296 kts | 274° |
| 2026-04-26 22:24 | -16.47567 | -49.07481 | 9861 ft | 292 kts | 274° |
| 2026-04-26 22:24 | -16.47400 | -49.09583 | 9575 ft | 290 kts | 275° |
| 2026-04-26 22:24 | -16.47234 | -49.11670 | 9289 ft | 289 kts | 275° |
| 2026-04-26 22:24 | -16.47068 | -49.13750 | 8990 ft | 287 kts | 275° |
| 2026-04-26 22:25 | -16.46901 | -49.15817 | 8688 ft | 286 kts | 275° |
| 2026-04-26 22:25 | -16.46737 | -49.17855 | 8388 ft | 286 kts | 275° |
| 2026-04-26 22:25 | -16.46571 | -49.19924 | 8054 ft | 286 kts | 275° |
| 2026-04-26 22:25 | -16.46405 | -49.21980 | 7753 ft | 285 kts | 274° |
| 2026-04-26 22:26 | -16.46241 | -49.24005 | 7610 ft | 276 kts | 275° |
| 2026-04-26 22:26 | -16.46082 | -49.25974 | 7471 ft | 269 kts | 274° |
| 2026-04-26 22:26 | -16.45927 | -49.27889 | 7351 ft | 261 kts | 274° |
| 2026-04-26 22:26 | -16.45777 | -49.29739 | 7235 ft | 253 kts | 274° |
| 2026-04-26 22:27 | -16.45724 | -49.31534 | 7099 ft | 245 kts | 259° |
| 2026-04-26 22:27 | -16.46398 | -49.33107 | 6903 ft | 235 kts | 230° |
| 2026-04-26 22:27 | -16.47617 | -49.34194 | 6634 ft | 228 kts | 212° |
| 2026-04-26 22:27 | -16.48967 | -49.35025 | 6368 ft | 223 kts | 209° |
| 2026-04-26 22:28 | -16.50299 | -49.35810 | 6119 ft | 218 kts | 209° |
| 2026-04-26 22:28 | -16.51601 | -49.36584 | 5878 ft | 213 kts | 210° |
| 2026-04-26 22:28 | -16.52937 | -49.37158 | 5617 ft | 206 kts | 185° |
| 2026-04-26 22:28 | -16.54301 | -49.36922 | 5399 ft | 197 kts | 154° |
| 2026-04-26 22:29 | -16.55337 | -49.36046 | 5163 ft | 191 kts | 127° |
| 2026-04-26 22:29 | -16.56040 | -49.34904 | 4948 ft | 185 kts | 121° |
| 2026-04-26 22:29 | -16.56688 | -49.33742 | 4762 ft | 184 kts | 121° |
| 2026-04-26 22:29 | -16.57316 | -49.32613 | 4567 ft | 175 kts | 121° |
| 2026-04-26 22:30 | -16.57913 | -49.31545 | 4319 ft | 166 kts | 121° |
| 2026-04-26 22:30 | -16.58473 | -49.30541 | 4143 ft | 157 kts | 120° |
| 2026-04-26 22:30 | -16.59014 | -49.29572 | 3906 ft | 152 kts | 120° |
| 2026-04-26 22:30 | -16.59541 | -49.28631 | 3711 ft | 150 kts | 120° |
| 2026-04-26 22:31 | -16.60071 | -49.27686 | 3518 ft | 151 kts | 120° |
| 2026-04-26 22:31 | -16.60603 | -49.26739 | 3305 ft | 151 kts | 120° |
| 2026-04-26 22:31 | -16.61132 | -49.25796 | 3104 ft | 150 kts | 119° |
| 2026-04-26 22:31 | -16.61640 | -49.24863 | 2833 ft | 149 kts | 120° |
| 2026-04-26 22:32 | -16.62176 | -49.23922 | 2650 ft | 151 kts | 120° |
| 2026-04-26 22:32 | -16.62751 | -49.22928 | 2759 ft | 168 kts | 121° |
| 2026-04-26 22:32 | -16.63381 | -49.21809 | 3356 ft | 188 kts | 120° |
| 2026-04-26 22:32 | -16.64028 | -49.20614 | 4382 ft | 193 kts | 122° |
| 2026-04-26 22:33 | -16.65105 | -49.19651 | 4776 ft | 220 kts | 161° |
| 2026-04-26 22:33 | -16.68111 | -49.20198 | 5874 ft | 236 kts | 221° |
| 2026-04-26 22:33 | -16.69049 | -49.21593 | 6584 ft | 243 kts | 251° |
| 2026-04-26 22:34 | -16.69162 | -49.23401 | 6974 ft | 264 kts | 279° |
| 2026-04-26 22:34 | -16.68672 | -49.25334 | 6990 ft | 283 kts | 288° |
| 2026-04-26 22:34 | -16.68032 | -49.27251 | 6987 ft | 275 kts | 289° |
| 2026-04-26 22:34 | -16.67405 | -49.29087 | 6976 ft | 262 kts | 289° |
| 2026-04-26 22:35 | -16.66820 | -49.30836 | 6981 ft | 249 kts | 288° |
| 2026-04-26 22:35 | -16.66280 | -49.32509 | 6978 ft | 238 kts | 288° |
| 2026-04-26 22:35 | -16.65765 | -49.34129 | 6983 ft | 233 kts | 288° |
| 2026-04-26 22:35 | -16.65255 | -49.35744 | 7002 ft | 238 kts | 288° |
| 2026-04-26 22:36 | -16.64734 | -49.37405 | 7014 ft | 244 kts | 288° |
| 2026-04-26 22:36 | -16.64205 | -49.39090 | 7005 ft | 244 kts | 287° |
| 2026-04-26 22:36 | -16.63506 | -49.40652 | 6982 ft | 241 kts | 311° |
| 2026-04-26 22:36 | -16.62170 | -49.41605 | 6992 ft | 231 kts | 342° |
| 2026-04-26 22:37 | -16.60593 | -49.41718 | 6678 ft | 227 kts | 11° |
| 2026-04-26 22:37 | -16.59126 | -49.41173 | 6402 ft | 223 kts | 28° |
| 2026-04-26 22:37 | -16.57790 | -49.40377 | 6132 ft | 220 kts | 31° |
| 2026-04-26 22:37 | -16.56487 | -49.39564 | 5881 ft | 216 kts | 33° |
| 2026-04-26 22:38 | -16.55451 | -49.38488 | 5599 ft | 209 kts | 65° |
| 2026-04-26 22:38 | -16.55160 | -49.37057 | 5354 ft | 200 kts | 95° |
| 2026-04-26 22:38 | -16.55546 | -49.35700 | 5120 ft | 193 kts | 118° |
| 2026-04-26 22:38 | -16.56200 | -49.34492 | 4879 ft | 188 kts | 121° |
| 2026-04-26 22:39 | -16.56849 | -49.33357 | 4671 ft | 178 kts | 121° |
| 2026-04-26 22:39 | -16.57468 | -49.32273 | 4471 ft | 171 kts | 121° |
| 2026-04-26 22:39 | -16.58060 | -49.31229 | 4266 ft | 163 kts | 121° |
| 2026-04-26 22:39 | -16.58626 | -49.30231 | 4070 ft | 159 kts | 121° |
| 2026-04-26 22:40 | -16.59179 | -49.29255 | 3844 ft | 155 kts | 121° |
| 2026-04-26 22:40 | -16.59723 | -49.28294 | 3644 ft | 156 kts | 120° |
| 2026-04-26 22:40 | -16.60273 | -49.27316 | 3432 ft | 156 kts | 120° |
| 2026-04-26 22:40 | -16.60828 | -49.26327 | 3219 ft | 156 kts | 121° |
| 2026-04-26 22:41 | -16.61364 | -49.25364 | 3003 ft | 156 kts | 120° |
| 2026-04-26 22:41 | -16.61907 | -49.24388 | 2777 ft | 155 kts | 121° |
| 2026-04-26 22:41 | -16.62458 | -49.23414 | 2568 ft | 160 kts | 121° |
| 2026-04-26 22:41 | -16.63018 | -49.22428 | 2458 ft | 146 kts | 120° |
| 2026-04-26 22:42 | -16.63417 | -49.21721 | 2455 ft | 65 kts | 121° |
| 2026-04-26 22:42 | -16.63548 | -49.21498 | 2459 ft | 20 kts | 123° |
| 2026-04-26 22:42 | -16.63603 | -49.21392 | 2464 ft | 5 kts | 117° |
| 2026-04-26 22:42 | -16.63620 | -49.21361 | 2461 ft | 5 kts | 119° |
| 2026-04-26 22:43 | -16.63637 | -49.21330 | 2465 ft | 5 kts | 121° |
| 2026-04-26 22:43 | -16.63657 | -49.21296 | 2461 ft | 6 kts | 123° |
| 2026-04-26 22:43 | -16.63684 | -49.21245 | 2461 ft | 11 kts | 117° |
| 2026-04-26 22:43 | -16.63726 | -49.21160 | 2464 ft | 14 kts | 115° |
| 2026-04-26 22:44 | -16.63723 | -49.21086 | 2461 ft | 8 kts | 41° |
| 2026-04-26 22:44 | -16.63674 | -49.21057 | 2459 ft | 8 kts | 28° |
| 2026-04-26 22:44 | -16.63624 | -49.21026 | 2461 ft | 8 kts | 32° |
| 2026-04-26 22:44 | -16.63574 | -49.20999 | 2465 ft | 8 kts | 19° |
| 2026-04-26 22:45 | -16.63521 | -49.20995 | 2464 ft | 8 kts | 347° |
| 2026-04-26 22:45 | -16.63469 | -49.21011 | 2463 ft | 8 kts | 343° |
| 2026-04-26 22:45 | -16.63432 | -49.21022 | 2461 ft | 9 kts | 343° |
| 2026-04-26 22:45 | -16.63360 | -49.21077 | 2464 ft | 17 kts | 304° |
| 2026-04-26 22:46 | -16.63290 | -49.21203 | 2465 ft | 22 kts | 299° |
| 2026-04-26 22:46 | -16.63211 | -49.21337 | 2463 ft | 21 kts | 299° |
| 2026-04-26 22:46 | -16.63145 | -49.21460 | 2467 ft | 10 kts | 300° |
| 2026-04-26 22:46 | -16.63119 | -49.21491 | 2461 ft | 1 kts | 346° |
| 2026-04-26 22:47 | -16.63098 | -49.21477 | 2464 ft | 5 kts | 50° |
| 2026-04-26 22:47 | -16.63076 | -49.21453 | 2461 ft | 4 kts | 40° |
| 2026-04-26 22:47 | -16.63067 | -49.21444 | 2461 ft | 0 kts | 41° |